LiveATC.Net - Listen to live air traffic control over the Internet!


ICAO: K1H0  IATA: 1H0   Airport: Creve Coeur Airport
City: St. Louis   State/Province: Missouri
Country: United States   Continent: North America
KSTL METAR Weather: KSTL 180751Z 06004KT 10SM CLR 24/19 A3006 RMK AO2 SLP166 T02390194
K1H0 Flight Activity (FlightAware)
K1H0 Webcam:  (Airport Webcams) 
K1H0 Airport Info   (AirNav) (iFlightPlanner)
K1H0 VFR Sectional Chart   (iFlightPlanner) 
K1H0 IFR Low Chart   (iFlightPlanner) 

K1H0 CTAF/Unicom
Feed Status: DOWN
Last heard on: 2018-07-08 23:23:03 (9 days 9 hours 10 minutes ago)
K1H0 CTAF/Unicom Audio Archives
FacilityFrequency
Creve Coeur CTAF122.800

NOTICE

Unauthorized use prohibited. See LiveATC.net Terms of Service


Find LiveATC Audio Streams


Airport/ARTCC Code

Frequency Search
(e.g., 124.400, 128.75)
Site-wide search
 


Browse LiveATC Feeds
Top 50 LiveATC Feeds
Bad Weather Areas

LiveATC FAQ
Offer a LiveATC Feed
Contact LiveATC.net
Press Inquiries

LiveATC on iPhone
LiveATC on Android

Windows Phone
Windows 8/10

LiveATC Mobile
(Mobile browser)

ATC Audio Archives
Interesting Recordings

LiveATC Forums


Home Page
About LiveATC.net
Make a Donation
Terms of Use
Privacy Policy

Canadian Air Freqs

AIRMETs/SIGMETs

FAA Airport Status
Nat'l Airspace Status
Arrival Demand Charts


Server Software By:
Icecast.org
Liquidsoap